Time;durP1;ratioP1;P1;durP2;ratioP2;P2;SDS_P1;SDS_P2;PMS_P1;PMS_P2;Temp;Humidity;BMP_temperature;BMP_pressure;BME280_temperature;BME280_humidity;BME280_pressure;Samples;Min_cycle;Max_cycle;Signal;HPM_P1;HPM_P2
2022/05/05 00:02:13;;;;;;;5.22;3.95;;;;;;;12.46;64.79;101641.53;4980587;28;20055;-83
2022/05/05 00:04:39;;;;;;;4.93;4.22;;;;;;;12.43;64.27;101636.47;4980338;28;20033;-83
2022/05/05 00:07:04;;;;;;;4.90;4.32;;;;;;;12.46;64.07;101631.16;4980104;28;20033;-83
2022/05/05 00:09:30;;;;;;;6.43;4.18;;;;;;;12.45;64.17;101619.91;4980191;28;20061;-83
2022/05/05 00:14:40;;;;;;;5.60;4.55;;;;;;;12.41;63.97;101635.69;4985365;28;20157;-83
2022/05/05 00:17:07;;;;;;;5.30;4.80;;;;;;;12.39;64.13;101640.94;4980455;28;20546;-82
2022/05/05 00:19:34;;;;;;;10.85;4.30;;;;;;;12.24;63.77;101632.00;4980342;28;20030;-83
2022/05/05 00:21:59;;;;;;;5.00;4.50;;;;;;;12.17;63.93;101620.19;4980132;28;20060;-83
2022/05/05 00:24:25;;;;;;;4.80;4.30;;;;;;;12.25;64.21;101651.84;4980150;28;20500;-83
2022/05/05 00:26:51;;;;;;;4.63;4.10;;;;;;;12.21;64.61;101645.13;4979700;28;20423;-83
2022/05/05 00:29:16;;;;;;;5.00;4.50;;;;;;;12.20;64.14;101646.03;4979743;28;20033;-83
2022/05/05 00:31:45;;;;;;;4.85;4.15;;;;;;;11.97;64.71;101622.72;4979715;28;20026;-83
2022/05/05 00:34:10;;;;;;;4.72;4.28;;;;;;;12.17;64.70;101642.69;4980216;28;20519;-83
2022/05/05 00:36:36;;;;;;;4.47;3.92;;;;;;;12.21;64.66;101646.88;4979184;28;20128;-83
2022/05/05 00:39:02;;;;;;;5.18;4.30;;;;;;;12.11;64.64;101617.84;4979894;28;20061;-83
2022/05/05 00:41:34;;;;;;;4.97;3.88;;;;;;;12.18;64.23;101629.66;4979345;28;20022;-83
2022/05/05 00:44:00;;;;;;;4.78;4.28;;;;;;;12.02;64.57;101610.44;4979593;28;20026;-82
2022/05/05 00:46:26;;;;;;;4.80;4.30;;;;;;;12.09;65.22;101637.78;4979930;28;20030;-83
2022/05/05 00:48:51;;;;;;;5.88;4.35;;;;;;;12.04;65.05;101624.19;4979558;28;20034;-83
2022/05/05 00:51:17;;;;;;;5.28;4.60;;;;;;;12.11;65.03;101641.19;4995748;28;20523;-83
2022/05/05 00:53:42;;;;;;;4.82;4.32;;;;;;;11.97;65.32;101622.72;4995437;28;20026;-83
2022/05/05 00:56:10;;;;;;;4.78;4.25;;;;;;;11.99;65.16;101628.69;4979243;28;20029;-83
2022/05/05 00:58:36;;;;;;;4.63;4.13;;;;;;;12.00;64.94;101631.25;4979338;28;20034;-83
2022/05/05 01:01:04;;;;;;;4.95;4.43;;;;;;;12.00;65.34;101630.41;4979450;28;20486;-83
2022/05/05 01:03:34;;;;;;;5.43;4.60;;;;;;;11.99;65.07;101631.28;4979787;28;20037;-83
2022/05/05 01:06:00;;;;;;;6.65;4.45;;;;;;;11.98;64.99;101638.22;4963281;28;20057;-84
2022/05/05 01:08:25;;;;;;;5.32;4.50;;;;;;;11.81;65.14;101622.47;4995390;28;20495;-82
2022/05/05 01:10:52;;;;;;;6.32;4.55;;;;;;;11.91;65.28;101643.72;4978615;28;20049;-83
2022/05/05 01:13:17;;;;;;;4.90;4.40;;;;;;;11.81;65.17;101643.22;4979293;28;20572;-83
2022/05/05 01:15:43;;;;;;;5.43;4.43;;;;;;;11.75;65.30;101644.25;4995492;28;20038;-83
2022/05/05 01:18:09;;;;;;;5.78;4.35;;;;;;;11.58;65.76;101619.84;4979331;28;20026;-83
2022/05/05 01:20:46;;;;;;;5.45;4.50;;;;;;;11.63;65.90;101646.47;4995554;28;20092;-83
2022/05/05 01:23:12;;;;;;;5.75;4.50;;;;;;;11.40;65.96;101622.22;4979586;28;20113;-83
2022/05/05 01:28:21;;;;;;;4.93;4.00;;;;;;;11.27;65.71;101605.44;4983901;28;20208;-83
2022/05/05 01:30:48;;;;;;;5.55;4.68;;;;;;;11.52;65.93;101662.41;5012742;28;20517;-83
2022/05/05 01:33:21;;;;;;;5.80;4.80;;;;;;;11.33;66.39;101645.84;4994989;28;20557;-83
2022/05/05 01:35:47;;;;;;;5.18;4.57;;;;;;;11.39;66.32;101661.97;4978930;28;20026;-83
2022/05/05 01:38:15;;;;;;;16.00;14.30;;;;;;;11.33;66.15;101651.03;4978677;28;20022;-83
2022/05/05 01:40:41;;;;;;;17.70;15.80;;;;;;;11.24;66.29;101656.53;4978752;28;20481;-83
2022/05/05 01:43:07;;;;;;;12.60;11.40;;;;;;;11.10;66.49;101650.06;4995090;28;20088;-82
2022/05/05 01:45:33;;;;;;;12.40;11.18;;;;;;;11.10;66.38;101650.06;4978569;28;20022;-83
2022/05/05 01:47:58;;;;;;;10.88;7.97;;;;;;;11.17;65.98;101663.66;4978384;28;20407;-83
2022/05/05 01:50:25;;;;;;;10.70;7.68;;;;;;;11.15;65.72;101668.88;4977603;28;20030;-83
2022/05/05 01:52:54;;;;;;;9.50;8.50;;;;;;;11.01;65.44;101655.59;4978325;28;20487;-83
2022/05/05 01:55:20;;;;;;;9.43;8.48;;;;;;;10.96;65.97;101649.69;4978841;28;20101;-83
2022/05/05 01:57:46;;;;;;;10.15;8.77;;;;;;;10.93;66.31;101662.75;4978013;28;20025;-83
2022/05/05 02:00:12;;;;;;;9.07;7.82;;;;;;;10.99;66.35;101659.94;4978502;28;20033;-83
2022/05/05 02:02:37;;;;;;;8.18;6.72;;;;;;;10.94;66.11;101654.09;4962308;28;20388;-83
2022/05/05 02:05:03;;;;;;;7.82;5.18;;;;;;;10.94;66.17;101656.69;4978584;28;20045;-82
2022/05/05 02:07:29;;;;;;;6.30;5.53;;;;;;;10.93;66.15;101662.75;4978233;28;20502;-83
2022/05/05 02:09:54;;;;;;;7.03;5.45;;;;;;;10.89;66.37;101653.38;4974455;28;20042;-83
2022/05/05 02:12:19;;;;;;;6.18;5.22;;;;;;;10.95;66.00;101657.53;4974937;28;20034;-83
2022/05/05 02:14:45;;;;;;;7.50;5.05;;;;;;;11.00;66.21;101674.56;5007308;28;20026;-83
2022/05/05 02:17:11;;;;;;;7.93;5.30;;;;;;;10.98;66.00;101658.25;4990721;28;20473;-82
2022/05/05 02:19:36;;;;;;;7.13;5.53;;;;;;;10.99;66.20;101667.72;4990848;28;20054;-83
2022/05/05 02:22:02;;;;;;;6.65;4.95;;;;;;;10.94;66.42;101669.63;4974412;28;20503;-83
2022/05/05 02:24:28;;;;;;;6.15;4.70;;;;;;;10.90;66.33;101670.63;4990886;28;20030;-83
2022/05/05 02:26:53;;;;;;;5.85;5.10;;;;;;;10.74;66.35;101651.34;4974406;28;20038;-83
2022/05/05 02:29:19;;;;;;;6.45;4.80;;;;;;;10.85;66.80;101669.94;4991592;28;20407;-83
2022/05/05 02:31:44;;;;;;;5.47;4.80;;;;;;;10.81;66.69;101676.09;4974616;28;20037;-83
2022/05/05 02:34:10;;;;;;;6.93;5.13;;;;;;;10.61;66.75;101667.25;4990443;28;20030;-83
2022/05/05 02:39:20;;;;;;;6.20;4.95;;;;;;;10.74;66.72;101672.88;4977173;28;20104;-83
2022/05/05 02:41:45;;;;;;;6.15;4.55;;;;;;;10.69;66.85;101668.75;4974455;28;20069;-83
2022/05/05 02:44:11;;;;;;;6.50;4.68;;;;;;;10.54;67.24;101665.75;4974257;28;20487;-82
2022/05/05 02:46:36;;;;;;;5.68;4.60;;;;;;;10.61;66.50;101671.56;4974508;28;20033;-82
2022/05/05 02:49:02;;;;;;;6.03;4.10;;;;;;;10.68;66.45;101693.78;4974269;28;20033;-83
2022/05/05 02:51:27;;;;;;;4.50;4.10;;;;;;;10.50;66.80;101684.84;4973907;28;20072;-83
2022/05/05 02:56:37;;;;;;;6.10;4.00;;;;;;;10.42;66.88;101666.16;4976622;28;20515;-83
2022/05/05 02:59:02;;;;;;;4.43;4.03;;;;;;;10.54;66.64;101683.88;4974206;28;20030;-82
2022/05/05 03:01:28;;;;;;;5.93;4.28;;;;;;;10.66;66.50;101702.50;4974201;28;20069;-82
2022/05/05 03:03:53;;;;;;;4.50;4.10;;;;;;;10.61;66.62;101687.94;4958016;28;20488;-83
2022/05/05 03:06:19;;;;;;;4.65;3.83;;;;;;;10.82;68.45;101701.09;4990220;28;20081;-84
2022/05/05 03:08:45;;;;;;;4.63;4.03;;;;;;;11.54;64.96;101704.66;4974036;28;20031;-85
2022/05/05 03:11:10;;;;;;;4.32;3.60;;;;;;;12.33;63.03;101712.09;4973791;28;20129;-85
2022/05/05 03:13:36;;;;;;;4.35;3.58;;;;;;;13.00;58.91;101685.16;4973865;28;20022;-86
2022/05/05 03:16:03;;;;;;;3.65;3.25;;;;;;;12.84;60.89;101697.06;4974127;28;20030;-85
2022/05/05 03:18:28;;;;;;;5.07;3.58;;;;;;;13.03;60.09;101691.97;4990081;28;20026;-85
2022/05/05 03:20:54;;;;;;;4.45;3.55;;;;;;;13.35;58.70;101716.59;4973583;28;20089;-86
2022/05/05 03:23:19;;;;;;;4.38;3.53;;;;;;;14.37;57.22;101714.56;4973824;28;20472;-85
2022/05/05 03:25:45;;;;;;;68.80;8.02;;;;;;;14.23;56.05;101711.75;4974008;28;20034;-85
2022/05/05 03:28:11;;;;;;;44.42;6.28;;;;;;;14.59;55.57;101719.63;4974169;28;20027;-85
2022/05/05 03:30:37;;;;;;;40.30;6.97;;;;;;;14.62;54.97;101709.03;4973897;28;20471;-86
2022/05/05 03:33:02;;;;;;;33.38;5.50;;;;;;;14.99;54.10;101713.28;4973861;28;20105;-86
2022/05/05 03:35:28;;;;;;;17.10;5.18;;;;;;;14.64;54.67;101730.63;4989701;28;20076;-86
2022/05/05 03:37:53;;;;;;;5.07;4.20;;;;;;;13.81;56.08;101741.44;4985009;28;20038;-86
2022/05/05 03:40:19;;;;;;;5.57;4.50;;;;;;;13.06;58.05;101725.59;4970073;28;20067;-85
2022/05/05 03:42:44;;;;;;;7.68;5.28;;;;;;;12.82;59.29;101743.88;4970248;28;20027;-85
2022/05/05 03:45:10;;;;;;;7.00;5.53;;;;;;;12.38;60.74;101742.19;4970244;28;20031;-84
2022/05/05 03:47:35;;;;;;;7.38;5.70;;;;;;;12.05;62.25;101745.16;4969653;28;20030;-82
2022/05/05 03:50:01;;;;;;;7.18;5.80;;;;;;;11.86;63.28;101747.59;4953643;28;20109;-82
2022/05/05 03:52:26;;;;;;;13.32;9.40;;;;;;;11.65;64.49;101750.94;4969967;28;20058;-81
2022/05/05 03:54:52;;;;;;;15.05;9.60;;;;;;;11.53;65.46;101752.22;4953588;28;20031;-82
2022/05/05 03:57:17;;;;;;;12.73;9.35;;;;;;;11.49;65.14;101755.78;4954130;28;20030;-82
2022/05/05 03:59:43;;;;;;;19.88;8.65;;;;;;;11.29;65.88;101742.69;4969842;28;20038;-82
2022/05/05 04:02:08;;;;;;;21.23;6.95;;;;;;;11.28;66.51;101764.31;4953805;28;20042;-81
2022/05/05 04:04:34;;;;;;;12.13;5.97;;;;;;;11.30;66.78;101767.69;4937910;28;20059;-82
2022/05/05 04:06:59;;;;;;;6.80;6.10;;;;;;;11.19;66.31;101753.34;4953509;28;20074;-81
2022/05/05 04:09:25;;;;;;;10.80;6.28;;;;;;;11.02;66.63;101754.81;4953827;28;20042;-81
2022/05/05 04:11:50;;;;;;;7.00;6.00;;;;;;;11.14;66.59;101775.13;4983639;28;20508;-82
2022/05/05 04:14:16;;;;;;;11.07;7.10;;;;;;;11.07;66.30;101748.59;4972539;28;20038;-82
2022/05/05 04:16:43;;;;;;;12.52;6.78;;;;;;;11.17;66.35;101770.69;4973179;28;20023;-82
2022/05/05 04:19:08;;;;;;;10.88;6.72;;;;;;;11.22;67.10;101780.91;4988679;28;20031;-83
2022/05/05 04:21:34;;;;;;;7.18;6.00;;;;;;;11.47;65.84;101773.97;4973040;28;20033;-83
2022/05/05 04:24:00;;;;;;;7.80;6.65;;;;;;;11.43;65.84;101781.94;4990463;28;20035;-85
2022/05/05 04:26:25;;;;;;;9.20;7.10;;;;;;;11.37;65.75;101792.50;4992044;28;20038;-85
2022/05/05 04:28:51;;;;;;;6.93;6.22;;;;;;;11.26;66.06;101785.06;4976353;28;20084;-83
2022/05/05 04:31:17;;;;;;;9.27;6.65;;;;;;;11.36;66.69;101796.81;4975818;28;20560;-84
2022/05/05 04:33:43;;;;;;;8.05;7.05;;;;;;;11.48;66.24;101798.16;5011131;28;20053;-90
2022/05/05 04:36:09;;;;;;;18.65;14.90;;;;;;;11.45;65.49;101800.84;4969041;28;20054;-95
2022/05/05 04:38:35;;;;;;;16.65;12.98;;;;;;;11.52;65.29;101812.72;4959006;28;20086;-87
2022/05/05 04:41:01;;;;;;;13.90;7.70;;;;;;;11.55;64.96;101811.75;4957412;28;20034;-88
2022/05/05 04:43:26;;;;;;;24.35;20.48;;;;;;;11.56;65.18;101814.28;4953741;28;20045;-87
2022/05/05 04:45:52;;;;;;;7.35;6.65;;;;;;;11.51;65.96;101811.03;4921701;29;20035;-86
2022/05/05 04:48:18;;;;;;;8.07;6.68;;;;;;;11.57;65.49;101810.81;4937221;29;20383;-85
2022/05/05 04:50:43;;;;;;;9.40;7.22;;;;;;;11.74;64.95;101824.03;4937637;29;20035;-90
2022/05/05 04:53:09;;;;;;;12.07;8.20;;;;;;;11.75;65.17;101815.34;4940257;28;20038;-92
2022/05/05 04:55:34;;;;;;;11.70;7.68;;;;;;;11.74;65.27;101811.06;4941940;28;20070;-92
2022/05/05 04:58:00;;;;;;;13.43;7.72;;;;;;;11.75;65.43;101793.78;4945125;28;20040;-87
2022/05/05 05:00:25;;;;;;;9.20;7.60;;;;;;;11.86;65.65;101816.75;4975505;28;20030;-87
2022/05/05 05:02:51;;;;;;;11.88;7.65;;;;;;;11.87;65.11;101808.91;4959217;28;20504;-88
2022/05/05 05:05:16;;;;;;;11.25;8.43;;;;;;;12.00;65.96;101819.72;4975323;28;20034;-86
2022/05/05 05:07:42;;;;;;;10.35;8.48;;;;;;;12.08;66.66;101822.84;4965837;28;20146;-92
2022/05/05 05:10:08;;;;;;;12.20;7.97;;;;;;;12.28;67.91;101810.00;4972651;28;20156;-87
2022/05/05 05:12:34;;;;;;;9.00;8.05;;;;;;;12.47;66.29;101827.47;4962791;28;20034;-86
2022/05/05 05:15:00;;;;;;;13.05;8.70;;;;;;;12.59;65.88;101834.84;4964186;28;20090;-90
2022/05/05 05:17:26;;;;;;;16.10;8.93;;;;;;;12.60;65.26;101826.13;4954764;28;20115;-90
2022/05/05 05:19:52;;;;;;;18.38;8.85;;;;;;;12.56;65.04;101811.56;4970073;28;20473;-86
2022/05/05 05:22:18;;;;;;;13.02;9.18;;;;;;;12.49;64.87;101792.81;4970671;28;20508;-85
2022/05/05 05:24:43;;;;;;;13.00;8.27;;;;;;;12.91;65.11;101837.03;4970346;28;20547;-83
2022/05/05 05:27:09;;;;;;;8.85;7.47;;;;;;;13.04;65.10;101833.94;4969548;28;20476;-83
2022/05/05 05:29:35;;;;;;;10.10;7.80;;;;;;;13.11;63.84;101843.19;4950351;28;21508;-85
2022/05/05 05:32:01;;;;;;;9.13;7.78;;;;;;;12.91;64.26;101821.44;4948194;28;20086;-83
2022/05/05 05:34:26;;;;;;;10.18;7.88;;;;;;;13.16;64.32;101849.00;4967176;28;20154;-86
2022/05/05 05:36:52;;;;;;;10.18;8.00;;;;;;;13.27;64.54;101849.47;4912458;28;20055;-84
2022/05/05 05:39:18;;;;;;;9.85;8.23;;;;;;;13.07;63.44;101793.06;4937172;29;20051;-84
2022/05/05 05:41:43;;;;;;;10.32;7.40;;;;;;;13.53;63.85;101850.16;4937429;29;20163;-84
2022/05/05 05:44:09;;;;;;;11.25;8.25;;;;;;;13.51;62.59;101805.19;4944563;28;20501;-85
2022/05/05 05:46:34;;;;;;;9.65;7.70;;;;;;;13.82;62.67;101848.91;4947439;28;20086;-86
2022/05/05 05:49:01;;;;;;;10.35;7.15;;;;;;;14.07;64.26;101841.75;4946355;28;20071;-92
2022/05/05 05:51:26;;;;;;;6.93;6.20;;;;;;;14.54;61.80;101846.56;4936007;28;20032;-91
2022/05/05 05:53:52;;;;;;;7.70;6.45;;;;;;;14.57;60.15;101847.31;4948278;29;20023;-85
2022/05/05 05:56:18;;;;;;;7.82;6.43;;;;;;;14.39;60.51;101852.47;4945221;29;20043;-90
2022/05/05 05:58:44;;;;;;;7.93;6.70;;;;;;;14.47;60.81;101845.19;4965123;28;20749;-91
2022/05/05 06:01:10;;;;;;;7.40;6.68;;;;;;;14.24;61.06;101849.63;4962485;28;20042;-87
2022/05/05 06:03:53;;;;;;;7.43;6.70;;;;;;;14.19;61.39;101850.75;4942830;29;20027;-85
2022/05/05 06:06:20;;;;;;;29.95;22.73;;;;;;;14.23;61.25;101821.06;4946821;29;20496;-88
2022/05/05 06:08:46;;;;;;;9.75;7.00;;;;;;;14.44;60.94;101850.47;4947077;28;20024;-88
2022/05/05 06:11:12;;;;;;;9.05;7.10;;;;;;;15.66;57.61;101852.50;4984945;28;20047;-89
2022/05/05 06:13:39;;;;;;;7.53;6.70;;;;;;;15.27;58.85;101857.88;4959991;28;20515;-94
2022/05/05 06:16:06;;;;;;;7.65;6.78;;;;;;;15.12;59.29;101849.03;4980790;28;20090;-89
2022/05/05 06:18:32;;;;;;;7.80;7.10;;;;;;;14.77;60.49;101866.38;4975036;28;20397;-93
2022/05/05 06:20:58;;;;;;;8.60;6.70;;;;;;;15.49;61.01;101855.91;4970552;28;20026;-89
2022/05/05 06:23:24;;;;;;;7.65;6.93;;;;;;;16.13;56.41;101857.88;4971694;28;20114;-85
2022/05/05 06:25:49;;;;;;;9.00;6.78;;;;;;;15.67;57.99;101847.19;4974897;28;20505;-83
2022/05/05 06:28:15;;;;;;;7.05;6.35;;;;;;;15.70;58.58;101875.72;4963703;28;20034;-81
2022/05/05 06:30:40;;;;;;;8.18;7.10;;;;;;;15.34;59.02;101878.38;4963395;28;20158;-89
2022/05/05 06:33:06;;;;;;;13.45;6.55;;;;;;;15.45;59.77;101875.25;4953149;28;20039;-89
2022/05/05 06:35:32;;;;;;;8.00;7.20;;;;;;;15.76;58.45;101861.53;4948944;28;20051;-84
2022/05/05 06:37:57;;;;;;;7.90;7.10;;;;;;;15.74;57.78;101866.84;4948618;28;20038;-86
2022/05/05 06:40:24;;;;;;;7.82;6.88;;;;;;;15.64;58.14;101868.22;4958078;28;20042;-89
2022/05/05 06:42:50;;;;;;;8.43;7.20;;;;;;;15.59;58.26;101854.53;4951692;28;20481;-84
2022/05/05 06:45:16;;;;;;;8.55;6.70;;;;;;;15.39;59.60;101883.34;4958911;28;20043;-84
2022/05/05 06:47:41;;;;;;;8.65;7.50;;;;;;;15.55;59.17;101862.59;4957621;28;21747;-86
2022/05/05 06:50:09;;;;;;;7.55;6.50;;;;;;;15.42;59.92;101851.91;4977796;28;20512;-87
2022/05/05 06:52:34;;;;;;;7.47;6.78;;;;;;;15.58;59.73;101846.78;4968361;28;20199;-87
2022/05/05 06:55:00;;;;;;;7.97;7.18;;;;;;;15.81;58.75;101863.91;4935597;28;20492;-88
2022/05/05 06:57:33;;;;;;;7.38;6.43;;;;;;;15.68;59.13;101863.69;4964505;28;20042;-95
2022/05/05 06:59:59;;;;;;;8.73;7.30;;;;;;;15.76;59.38;101864.97;4965944;28;20130;-92
2022/05/05 07:02:24;;;;;;;7.38;6.60;;;;;;;15.81;59.02;101863.91;4963266;28;20110;-92
2022/05/05 07:07:34;;;;;;;7.60;6.65;;;;;;;16.18;57.95;101839.34;4955394;28;20467;-86
2022/05/05 07:12:43;;;;;;;8.77;6.35;;;;;;;16.81;58.51;101874.25;4967015;28;20549;-88
2022/05/05 07:15:09;;;;;;;7.22;6.45;;;;;;;17.28;55.12;101868.09;4950508;28;20537;-92
2022/05/05 07:17:35;;;;;;;8.27;6.85;;;;;;;17.67;54.25;101869.31;4947902;28;20039;-85
2022/05/05 07:20:00;;;;;;;7.03;6.30;;;;;;;17.47;55.41;101855.63;4951588;28;20453;-87
2022/05/05 07:22:26;;;;;;;6.45;5.63;;;;;;;17.55;55.40;101859.56;4964280;28;20519;-83
2022/05/05 07:24:51;;;;;;;10.27;6.60;;;;;;;17.39;55.21;101816.00;4963082;28;20030;-90
2022/05/05 07:27:17;;;;;;;8.35;6.00;;;;;;;17.68;55.25;101850.91;4963347;28;20027;-90
2022/05/05 07:29:42;;;;;;;7.60;5.90;;;;;;;17.56;53.68;101851.63;4964026;28;20053;-91
2022/05/05 07:32:08;;;;;;;6.80;5.93;;;;;;;17.35;54.75;101872.03;4962758;28;20760;-95
2022/05/05 07:34:34;;;;;;;6.32;5.57;;;;;;;17.40;55.36;101872.63;4937423;28;20031;-89
2022/05/05 07:37:00;;;;;;;7.13;5.50;;;;;;;17.44;54.32;101888.97;4917624;28;20070;-93
2022/05/05 07:39:26;;;;;;;6.30;5.70;;;;;;;17.29;55.47;101885.47;4927881;29;20023;-91
2022/05/05 07:41:51;;;;;;;7.95;5.53;;;;;;;17.51;54.36;101897.34;4966225;28;20515;-88
2022/05/05 07:44:17;;;;;;;5.40;4.72;;;;;;;18.27;54.72;101890.16;4960417;28;20488;-89
2022/05/05 07:46:42;;;;;;;8.02;4.97;;;;;;;18.78;54.38;101901.00;4914527;29;20059;-92
2022/05/05 07:49:08;;;;;;;6.47;5.20;;;;;;;18.65;51.07;101890.44;4947184;28;21627;-85
2022/05/05 07:51:34;;;;;;;5.50;4.78;;;;;;;18.52;51.78;101890.34;4947501;29;20023;-90
2022/05/05 07:56:43;;;;;;;5.72;5.05;;;;;;;18.55;51.01;101884.91;4945994;29;20074;-93
2022/05/05 07:59:10;;;;;;;7.25;5.18;;;;;;;18.33;51.22;101860.97;4935193;29;20470;-86
2022/05/05 08:01:35;;;;;;;5.53;4.35;;;;;;;18.52;50.96;101894.75;4949401;28;20047;-86
2022/05/05 08:04:00;;;;;;;5.28;4.10;;;;;;;18.35;50.56;101887.91;4970612;28;20036;-89
2022/05/05 08:06:26;;;;;;;5.00;4.00;;;;;;;18.39;51.92;101884.19;4970162;28;20417;-86
2022/05/05 08:08:52;;;;;;;4.20;3.80;;;;;;;19.13;52.05;101885.63;4966638;28;20036;-86
2022/05/05 08:11:17;;;;;;;5.63;3.70;;;;;;;19.01;49.67;101891.69;4997265;28;20042;-88
2022/05/05 08:13:44;;;;;;;4.22;3.30;;;;;;;19.15;50.17;101887.22;5004221;28;20046;-91
2022/05/05 08:16:10;;;;;;;5.10;3.78;;;;;;;19.51;47.80;101895.41;5006546;28;20408;-90
2022/05/05 08:18:38;;;;;;;3.78;3.30;;;;;;;19.39;47.01;101903.16;4975269;28;20041;-87
2022/05/05 08:21:04;;;;;;;7.65;6.82;;;;;;;19.39;48.17;101886.56;4984774;28;20073;-86
2022/05/05 08:23:29;;;;;;;5.43;3.75;;;;;;;19.63;47.60;101890.19;4983440;28;20058;-87
2022/05/05 08:28:40;;;;;;;6.57;4.72;;;;;;;19.76;47.39;101901.56;4966952;28;20093;-86
2022/05/05 08:31:06;;;;;;;7.55;4.05;;;;;;;19.88;49.22;101884.16;4983272;28;20719;-85
2022/05/05 08:33:32;;;;;;;5.30;4.40;;;;;;;20.07;46.11;101899.50;4984742;28;20030;-87
2022/05/05 08:35:58;;;;;;;7.05;4.40;;;;;;;19.87;46.65;101882.47;4940563;28;20065;-87
2022/05/05 08:38:23;;;;;;;4.90;3.70;;;;;;;20.20;47.44;101879.28;4980492;28;20042;-85
2022/05/05 08:40:49;;;;;;;6.55;4.20;;;;;;;20.41;45.98;101881.38;4971878;28;20038;-87
2022/05/05 08:43:14;;;;;;;6.55;4.38;;;;;;;20.29;45.57;101873.41;4971338;28;20476;-86
2022/05/05 08:45:40;;;;;;;4.95;4.45;;;;;;;20.42;45.99;101893.56;4990612;28;20416;-91
2022/05/05 08:48:11;;;;;;;6.30;4.93;;;;;;;20.27;45.76;101884.97;4973009;28;20049;-87
2022/05/05 08:50:37;;;;;;;7.05;4.57;;;;;;;20.44;46.40;101886.44;4965635;28;20034;-89
2022/05/05 08:53:04;;;;;;;6.10;4.65;;;;;;;20.54;45.91;101888.28;4961335;28;20502;-89
2022/05/05 08:55:31;;;;;;;4.95;3.90;;;;;;;20.74;45.31;101892.13;4987386;28;20031;-86
2022/05/05 08:57:57;;;;;;;4.13;3.72;;;;;;;21.01;45.30;101888.47;5000080;28;20503;-90
2022/05/05 09:00:24;;;;;;;7.43;4.10;;;;;;;21.18;44.00;101885.44;4972983;28;20030;-87
2022/05/05 09:02:54;;;;;;;4.88;3.80;;;;;;;21.39;43.43;101886.50;4968442;28;20026;-91
2022/05/05 09:05:50;;;;;;;6.28;3.70;;;;;;;21.59;42.91;101886.81;4978442;28;20030;-86
2022/05/05 09:08:27;;;;;;;4.88;4.20;;;;;;;21.58;44.19;101869.34;4972878;28;20077;-83
2022/05/05 09:11:02;;;;;;;4.90;3.00;;;;;;;21.87;42.22;101885.56;4975511;28;20566;-85
2022/05/05 09:13:30;;;;;;;4.88;3.80;;;;;;;22.08;42.21;101883.94;4973647;28;20030;-86
2022/05/05 09:15:55;;;;;;;7.38;3.38;;;;;;;22.23;41.45;101879.28;5000135;28;20531;-85
2022/05/05 09:18:32;;;;;;;4.63;3.10;;;;;;;22.31;41.07;101876.84;4994047;28;20038;-87
2022/05/05 09:20:59;;;;;;;3.47;3.03;;;;;;;22.47;41.92;101887.88;4994986;28;20683;-85
2022/05/05 09:26:25;;;;;;;3.95;2.60;;;;;;;22.21;39.98;101883.78;4991108;28;20046;-85
2022/05/05 09:28:51;;;;;;;4.10;2.60;;;;;;;22.12;39.08;101869.53;4986313;28;20543;-85
2022/05/05 09:31:17;;;;;;;3.92;2.60;;;;;;;22.09;39.48;101864.50;4970337;28;20035;-85
2022/05/05 09:33:43;;;;;;;3.30;2.40;;;;;;;22.21;39.00;101868.81;4986030;28;20416;-86
2022/05/05 09:36:16;;;;;;;3.50;2.33;;;;;;;22.12;39.13;101872.19;4950899;28;20058;-84
2022/05/05 09:39:02;;;;;;;5.07;2.50;;;;;;;22.36;37.92;101877.34;4973939;28;20026;-84
2022/05/05 09:41:35;;;;;;;3.28;2.08;;;;;;;22.43;38.28;101864.53;4985371;28;20030;-82
2022/05/05 09:44:21;;;;;;;3.58;2.40;;;;;;;22.56;38.54;101862.56;4990922;28;20507;-82
2022/05/05 09:46:48;;;;;;;6.20;2.63;;;;;;;22.63;38.52;101849.75;4976053;28;20539;-85
2022/05/05 09:49:15;;;;;;;3.95;2.83;;;;;;;22.73;38.40;101864.69;4955364;28;20035;-84
2022/05/05 09:57:39;;;;;;;3.42;2.72;;;;;;;22.88;38.58;101852.06;4969704;28;20034;-84
2022/05/05 09:57:41;;;;;;;4.43;3.25;;;;;;;23.07;38.15;101844.31;4960066;28;20053;-85
2022/05/05 10:05:45;;;;;;;4.38;3.80;;;;;;;23.46;37.15;101856.00;4961751;28;20049;-84
2022/05/05 10:08:10;;;;;;;6.72;4.45;;;;;;;23.66;36.73;101857.00;4989311;28;20058;-84
2022/05/05 10:10:37;;;;;;;7.25;4.75;;;;;;;23.83;36.11;101854.75;4962968;28;20089;-84
2022/05/05 10:13:03;;;;;;;5.57;4.50;;;;;;;23.97;35.27;101841.16;4989851;28;20485;-85
2022/05/05 10:15:29;;;;;;;7.18;4.70;;;;;;;24.10;34.99;101860.28;4973167;28;20038;-85
2022/05/05 10:17:54;;;;;;;5.82;4.75;;;;;;;24.08;34.81;101846.34;4973131;28;20138;-81
2022/05/05 10:20:20;;;;;;;4.97;4.43;;;;;;;24.39;34.19;101867.53;4972574;28;20038;-83
2022/05/05 10:23:13;;;;;;;5.70;4.60;;;;;;;24.37;34.01;101856.22;4964571;28;20042;-86
2022/05/05 10:25:39;;;;;;;7.22;4.70;;;;;;;24.31;36.02;101858.44;4947224;28;20101;-83
2022/05/05 10:28:37;;;;;;;4.72;3.30;;;;;;;24.31;34.78;101861.09;4957818;28;20030;-83
2022/05/05 10:31:03;;;;;;;4.03;3.63;;;;;;;24.27;34.80;101850.88;4984692;28;20042;-89
2022/05/05 10:33:56;;;;;;;5.47;2.75;;;;;;;24.39;34.78;101855.13;4956420;28;20034;-86
2022/05/05 10:36:23;;;;;;;3.70;2.70;;;;;;;24.41;34.35;101849.72;4989811;28;20034;-83
2022/05/05 10:38:49;;;;;;;6.25;2.40;;;;;;;24.40;34.37;101842.75;4983276;28;20045;-81
2022/05/05 10:41:30;;;;;;;3.33;2.53;;;;;;;24.54;35.31;101855.56;4991916;28;20084;-82
2022/05/05 10:44:16;;;;;;;3.47;2.40;;;;;;;24.55;34.25;101857.25;5010291;28;20026;-85
2022/05/05 10:46:51;;;;;;;4.93;2.50;;;;;;;24.58;35.29;101857.84;4991201;28;20030;-86
2022/05/05 10:52:20;;;;;;;3.58;2.03;;;;;;;24.52;33.94;101854.88;5008512;28;20541;-84
2022/05/05 10:54:47;;;;;;;3.22;2.30;;;;;;;24.68;33.71;101862.28;4986505;28;20084;-86
2022/05/05 10:57:38;;;;;;;3.45;2.20;;;;;;;24.81;33.68;101862.88;4960107;28;20124;-86
2022/05/05 11:00:13;;;;;;;3.08;2.30;;;;;;;24.91;33.77;101870.81;4975775;28;20052;-85
2022/05/05 11:03:01;;;;;;;3.20;2.50;;;;;;;24.99;34.12;101874.44;5010692;28;20053;-86
2022/05/05 11:05:35;;;;;;;3.70;2.80;;;;;;;25.08;33.42;101868.34;4995732;28;20348;-86
2022/05/05 11:08:15;;;;;;;2.50;2.30;;;;;;;25.00;33.09;101860.25;4957577;28;20415;-88
2022/05/05 11:10:47;;;;;;;2.90;2.10;;;;;;;25.15;33.21;101860.66;4988315;28;20050;-87
2022/05/05 11:13:31;;;;;;;4.43;2.88;;;;;;;25.27;33.13;101854.28;4973160;28;20056;-85
2022/05/05 11:21:49;;;;;;;3.67;2.05;;;;;;;25.07;33.19;101811.09;4938887;28;20047;-86
2022/05/05 11:24:27;;;;;;;2.92;2.05;;;;;;;25.25;32.63;101850.06;4977074;28;20027;-86
2022/05/05 11:26:53;;;;;;;3.08;2.33;;;;;;;25.37;33.27;101833.06;4998350;28;20085;-84
2022/05/05 11:29:18;;;;;;;3.35;2.10;;;;;;;25.59;31.33;101847.81;4986130;28;20034;-84
2022/05/05 11:31:55;;;;;;;2.40;2.00;;;;;;;25.44;31.04;101844.75;4976869;28;20062;-81
2022/05/05 11:34:21;;;;;;;4.38;2.40;;;;;;;25.30;31.64;101832.78;4971963;28;20036;-88
2022/05/05 11:36:46;;;;;;;2.92;2.38;;;;;;;25.61;31.68;101857.28;4996534;28;20022;-83
2022/05/05 11:39:12;;;;;;;4.05;2.75;;;;;;;25.58;31.62;101846.13;4955855;28;20051;-84
2022/05/05 11:41:37;;;;;;;3.47;2.15;;;;;;;25.63;31.73;101844.72;4989851;28;20030;-84
2022/05/05 11:44:16;;;;;;;3.08;2.47;;;;;;;25.78;32.88;101842.47;4976529;28;20038;-82
2022/05/05 11:46:41;;;;;;;2.83;2.00;;;;;;;25.89;30.76;101830.84;4972480;28;20029;-82
2022/05/05 11:49:08;;;;;;;2.15;1.95;;;;;;;25.90;30.58;101825.41;4955011;28;20038;-82
2022/05/05 11:51:34;;;;;;;3.97;2.40;;;;;;;25.84;31.00;101830.44;4972978;28;20030;-86
2022/05/05 11:54:00;;;;;;;3.40;2.20;;;;;;;25.84;30.61;101828.63;4956224;28;20038;-85
2022/05/05 11:56:27;;;;;;;2.70;2.00;;;;;;;25.73;31.46;101818.22;4974261;28;20026;-87
2022/05/05 12:01:39;;;;;;;2.53;2.03;;;;;;;25.69;30.88;101809.69;4992027;28;20037;-83
2022/05/05 12:04:05;;;;;;;3.63;2.15;;;;;;;25.71;30.78;101810.41;4993259;28;20038;-84
2022/05/05 12:06:31;;;;;;;4.03;2.58;;;;;;;25.78;31.25;101821.28;4966700;28;20040;-89
2022/05/05 12:08:57;;;;;;;2.50;1.98;;;;;;;25.65;30.06;101816.25;4987443;28;20034;-84
2022/05/05 12:11:29;;;;;;;2.50;2.05;;;;;;;25.51;30.44;101808.75;4953765;28;20099;-84